KAL389 WMKK-VVTS
Flight info
| Callsign | KAL389 |
|---|---|
| Flight time | 1h 28m |
| Altitude | 39000 |
| Route | PIBOS1D PIBOS R208 IGARI/K0882F390 M765 BITOD L637 ANBOV ANBOV5E |
| Aircraft | B77L/H-SDE1E2E3FGHIJ2J3J4J5M1RWXY/LB1D1 |
Departure
| Time | 2026-05-08 08:40 |
|---|---|
| Airport | Kuala Lumpur International Airport (WMKK) |
Arrival
| Time | 2026-05-08 10:09 |
|---|---|
| Airport | Tan Son Nhat International Airport (VVTS) |
| Time | Latitude | Longitude | Altitude | Speed | Heading |
|---|---|---|---|---|---|
| 2026-05-08 08:25 | 2.73639 | 101.71158 | 7 ft | 0 kts | 146° |
| 2026-05-08 08:32 | 2.73649 | 101.71152 | 53 ft | 4 kts | 151° |
| 2026-05-08 08:32 | 2.73672 | 101.71139 | 55 ft | 4 kts | 134° |
| 2026-05-08 08:32 | 2.73685 | 101.71122 | 53 ft | 4 kts | 127° |
| 2026-05-08 08:33 | 2.73701 | 101.71101 | 53 ft | 4 kts | 121° |
| 2026-05-08 08:33 | 2.73705 | 101.71094 | 53 ft | 1 kts | 119° |
| 2026-05-08 08:35 | 2.73704 | 101.71097 | 53 ft | 2 kts | 117° |
| 2026-05-08 08:35 | 2.73727 | 101.71141 | 55 ft | 10 kts | 29° |
| 2026-05-08 08:35 | 2.73789 | 101.71179 | 55 ft | 11 kts | 42° |
| 2026-05-08 08:36 | 2.73843 | 101.71245 | 53 ft | 13 kts | 52° |
| 2026-05-08 08:36 | 2.73903 | 101.71317 | 57 ft | 14 kts | 50° |
| 2026-05-08 08:36 | 2.73957 | 101.71400 | 55 ft | 14 kts | 59° |
| 2026-05-08 08:36 | 2.74010 | 101.71486 | 56 ft | 14 kts | 59° |
| 2026-05-08 08:37 | 2.74063 | 101.71571 | 53 ft | 15 kts | 53° |
| 2026-05-08 08:37 | 2.74126 | 101.71653 | 54 ft | 15 kts | 52° |
| 2026-05-08 08:37 | 2.74189 | 101.71738 | 55 ft | 15 kts | 53° |
| 2026-05-08 08:37 | 2.74246 | 101.71829 | 55 ft | 16 kts | 58° |
| 2026-05-08 08:38 | 2.74308 | 101.71920 | 54 ft | 16 kts | 54° |
| 2026-05-08 08:38 | 2.74371 | 101.72012 | 57 ft | 16 kts | 56° |
| 2026-05-08 08:38 | 2.74432 | 101.72104 | 55 ft | 16 kts | 56° |
| 2026-05-08 08:38 | 2.74508 | 101.72179 | 57 ft | 16 kts | 10° |
| 2026-05-08 08:39 | 2.74607 | 101.72132 | 56 ft | 16 kts | 330° |
| 2026-05-08 08:39 | 2.74701 | 101.72170 | 61 ft | 16 kts | 49° |
| 2026-05-08 08:39 | 2.74785 | 101.72241 | 56 ft | 16 kts | 357° |
| 2026-05-08 08:39 | 2.74889 | 101.72164 | 53 ft | 20 kts | 324° |
| 2026-05-08 08:40 | 2.74908 | 101.72151 | 53 ft | 11 kts | 326° |
| 2026-05-08 08:40 | 2.75224 | 101.71941 | 58 ft | 100 kts | 326° |
| 2026-05-08 08:40 | 2.76020 | 101.71408 | 105 ft | 167 kts | 326° |
| 2026-05-08 08:40 | 2.76986 | 101.70761 | 830 ft | 167 kts | 326° |
| 2026-05-08 08:41 | 2.77973 | 101.70101 | 1612 ft | 172 kts | 326° |
| 2026-05-08 08:41 | 2.79004 | 101.69413 | 2360 ft | 187 kts | 326° |
| 2026-05-08 08:41 | 2.80226 | 101.68734 | 2712 ft | 218 kts | 338° |
| 2026-05-08 08:41 | 2.81772 | 101.68189 | 3054 ft | 252 kts | 341° |
| 2026-05-08 08:42 | 2.83471 | 101.67620 | 3797 ft | 266 kts | 341° |
| 2026-05-08 08:42 | 2.85255 | 101.67001 | 4702 ft | 277 kts | 340° |
| 2026-05-08 08:42 | 2.87087 | 101.66351 | 5709 ft | 282 kts | 340° |
| 2026-05-08 08:42 | 2.88944 | 101.65685 | 6728 ft | 285 kts | 340° |
| 2026-05-08 08:43 | 2.90866 | 101.65169 | 7544 ft | 291 kts | 358° |
| 2026-05-08 08:43 | 2.92841 | 101.65592 | 8408 ft | 293 kts | 27° |
| 2026-05-08 08:43 | 2.94615 | 101.66602 | 9283 ft | 297 kts | 31° |
| 2026-05-08 08:43 | 2.96410 | 101.67655 | 10199 ft | 300 kts | 31° |
| 2026-05-08 08:44 | 2.98261 | 101.68743 | 10845 ft | 320 kts | 31° |
| 2026-05-08 08:44 | 3.00275 | 101.69928 | 11111 ft | 351 kts | 31° |
| 2026-05-08 08:44 | 3.02435 | 101.71193 | 11840 ft | 365 kts | 31° |
| 2026-05-08 08:44 | 3.04646 | 101.72483 | 12870 ft | 371 kts | 31° |
| 2026-05-08 08:45 | 3.06859 | 101.73770 | 13915 ft | 375 kts | 32° |
| 2026-05-08 08:45 | 3.09131 | 101.75092 | 14859 ft | 380 kts | 32° |
| 2026-05-08 08:45 | 3.11434 | 101.76429 | 15764 ft | 386 kts | 32° |
| 2026-05-08 08:45 | 3.13774 | 101.77789 | 16660 ft | 391 kts | 32° |
| 2026-05-08 08:46 | 3.16120 | 101.79191 | 17479 ft | 393 kts | 36° |
| 2026-05-08 08:46 | 3.18099 | 101.81078 | 18202 ft | 394 kts | 56° |
| 2026-05-08 08:46 | 3.19590 | 101.83397 | 18759 ft | 400 kts | 59° |
| 2026-05-08 08:46 | 3.21121 | 101.85757 | 19453 ft | 406 kts | 58° |
| 2026-05-08 08:47 | 3.22676 | 101.88084 | 20230 ft | 409 kts | 57° |
| 2026-05-08 08:47 | 3.24279 | 101.90452 | 21002 ft | 413 kts | 57° |
| 2026-05-08 08:47 | 3.25901 | 101.92844 | 21741 ft | 417 kts | 57° |
| 2026-05-08 08:47 | 3.27556 | 101.95256 | 22455 ft | 422 kts | 56° |
| 2026-05-08 08:48 | 3.29319 | 101.97624 | 23135 ft | 427 kts | 54° |
| 2026-05-08 08:48 | 3.30522 | 101.99191 | 23555 ft | 430 kts | 54° |
| 2026-05-08 08:48 | 3.32348 | 102.01588 | 24123 ft | 434 kts | 54° |
| 2026-05-08 08:48 | 3.34803 | 102.04778 | 24814 ft | 438 kts | 50° |
| 2026-05-08 08:49 | 3.36304 | 102.06210 | 25116 ft | 445 kts | 38° |
| 2026-05-08 08:49 | 3.38993 | 102.07789 | 25663 ft | 451 kts | 29° |
| 2026-05-08 08:49 | 3.41772 | 102.09271 | 26223 ft | 454 kts | 31° |
| 2026-05-08 08:49 | 3.44533 | 102.10829 | 26754 ft | 458 kts | 31° |
| 2026-05-08 08:50 | 3.47319 | 102.12326 | 27274 ft | 462 kts | 29° |
| 2026-05-08 08:50 | 3.50194 | 102.13805 | 27798 ft | 467 kts | 28° |
| 2026-05-08 08:50 | 3.53107 | 102.15277 | 28325 ft | 471 kts | 28° |
| 2026-05-08 08:50 | 3.56047 | 102.16759 | 28830 ft | 475 kts | 28° |
| 2026-05-08 08:51 | 3.59010 | 102.18257 | 29355 ft | 479 kts | 28° |
| 2026-05-08 08:51 | 3.62007 | 102.19779 | 29844 ft | 483 kts | 28° |
| 2026-05-08 08:51 | 3.65014 | 102.21313 | 30268 ft | 487 kts | 28° |
| 2026-05-08 08:51 | 3.68039 | 102.22861 | 30680 ft | 490 kts | 28° |
| 2026-05-08 08:52 | 3.71087 | 102.24423 | 31087 ft | 493 kts | 28° |
| 2026-05-08 08:52 | 3.74150 | 102.25993 | 31471 ft | 496 kts | 28° |
| 2026-05-08 08:52 | 3.77231 | 102.27573 | 31879 ft | 498 kts | 28° |
| 2026-05-08 08:52 | 3.80310 | 102.29152 | 32399 ft | 497 kts | 28° |
| 2026-05-08 08:53 | 3.83386 | 102.30729 | 32976 ft | 495 kts | 28° |
| 2026-05-08 08:53 | 3.86448 | 102.32297 | 33541 ft | 493 kts | 28° |
| 2026-05-08 08:53 | 3.89501 | 102.33862 | 34054 ft | 492 kts | 28° |
| 2026-05-08 08:53 | 3.92548 | 102.35425 | 34535 ft | 491 kts | 28° |
| 2026-05-08 08:54 | 3.95543 | 102.36961 | 35038 ft | 489 kts | 28° |
| 2026-05-08 08:54 | 3.98575 | 102.38516 | 35544 ft | 488 kts | 28° |
| 2026-05-08 08:54 | 4.01590 | 102.40062 | 36034 ft | 486 kts | 28° |
| 2026-05-08 08:54 | 4.04604 | 102.41608 | 36526 ft | 484 kts | 28° |
| 2026-05-08 08:55 | 4.07596 | 102.43143 | 37057 ft | 481 kts | 28° |
| 2026-05-08 08:55 | 4.10573 | 102.44670 | 37534 ft | 480 kts | 28° |
| 2026-05-08 08:55 | 4.13543 | 102.46193 | 37987 ft | 479 kts | 28° |
| 2026-05-08 08:55 | 4.16504 | 102.47712 | 38427 ft | 478 kts | 28° |
| 2026-05-08 08:56 | 4.19458 | 102.49228 | 38807 ft | 477 kts | 28° |
| 2026-05-08 08:56 | 4.22422 | 102.50750 | 38873 ft | 481 kts | 28° |
| 2026-05-08 08:56 | 4.28378 | 102.53807 | 38872 ft | 479 kts | 28° |
| 2026-05-08 08:57 | 4.34275 | 102.56833 | 38875 ft | 473 kts | 28° |
| 2026-05-08 08:57 | 4.40093 | 102.59820 | 38879 ft | 472 kts | 28° |
| 2026-05-08 08:58 | 4.45937 | 102.62822 | 38886 ft | 472 kts | 28° |
| 2026-05-08 08:58 | 4.51791 | 102.65829 | 38893 ft | 473 kts | 28° |
| 2026-05-08 08:59 | 4.57653 | 102.68841 | 38891 ft | 474 kts | 28° |
| 2026-05-08 08:59 | 4.63548 | 102.71830 | 38893 ft | 476 kts | 27° |
| 2026-05-08 09:00 | 4.69511 | 102.74747 | 38895 ft | 477 kts | 27° |
| 2026-05-08 09:00 | 4.75484 | 102.77672 | 38891 ft | 478 kts | 27° |
| 2026-05-08 09:01 | 4.81448 | 102.80610 | 38886 ft | 477 kts | 27° |
| 2026-05-08 09:01 | 4.87378 | 102.83533 | 38888 ft | 477 kts | 27° |
| 2026-05-08 09:02 | 4.93306 | 102.86516 | 38896 ft | 476 kts | 28° |
| 2026-05-08 09:02 | 4.99211 | 102.89517 | 38894 ft | 476 kts | 28° |
| 2026-05-08 09:03 | 5.05123 | 102.92514 | 38887 ft | 475 kts | 28° |
| 2026-05-08 09:03 | 5.11030 | 102.95504 | 38881 ft | 475 kts | 28° |
| 2026-05-08 09:04 | 5.16927 | 102.98488 | 38882 ft | 475 kts | 28° |
| 2026-05-08 09:04 | 5.22786 | 103.01455 | 38891 ft | 474 kts | 27° |
| 2026-05-08 09:05 | 5.28666 | 103.04433 | 38883 ft | 473 kts | 27° |
| 2026-05-08 09:05 | 5.34535 | 103.07405 | 38882 ft | 472 kts | 27° |
| 2026-05-08 09:06 | 5.40612 | 103.09909 | 38891 ft | 471 kts | 20° |
| 2026-05-08 09:06 | 5.46809 | 103.12084 | 38884 ft | 471 kts | 20° |
| 2026-05-08 09:07 | 5.52961 | 103.14260 | 38878 ft | 472 kts | 20° |
| 2026-05-08 09:07 | 5.59145 | 103.16481 | 38886 ft | 473 kts | 20° |
| 2026-05-08 09:08 | 5.65345 | 103.18715 | 38885 ft | 474 kts | 20° |
| 2026-05-08 09:08 | 5.71563 | 103.20954 | 38889 ft | 475 kts | 20° |
| 2026-05-08 09:09 | 5.77808 | 103.23161 | 38885 ft | 476 kts | 18° |
| 2026-05-08 09:09 | 5.84148 | 103.25096 | 38890 ft | 477 kts | 17° |
| 2026-05-08 09:10 | 5.90518 | 103.26971 | 38887 ft | 477 kts | 17° |
| 2026-05-08 09:10 | 5.96881 | 103.28881 | 38889 ft | 476 kts | 17° |
| 2026-05-08 09:11 | 6.03182 | 103.30801 | 38886 ft | 476 kts | 17° |
| 2026-05-08 09:11 | 6.09509 | 103.32736 | 38886 ft | 475 kts | 17° |
| 2026-05-08 09:12 | 6.15838 | 103.34672 | 38888 ft | 474 kts | 17° |
| 2026-05-08 09:12 | 6.22159 | 103.36603 | 38886 ft | 474 kts | 17° |
| 2026-05-08 09:13 | 6.28466 | 103.38531 | 38889 ft | 474 kts | 17° |
| 2026-05-08 09:13 | 6.34782 | 103.40462 | 38888 ft | 473 kts | 17° |
| 2026-05-08 09:14 | 6.41053 | 103.42379 | 38887 ft | 473 kts | 17° |
| 2026-05-08 09:14 | 6.47358 | 103.44308 | 38887 ft | 473 kts | 17° |
| 2026-05-08 09:15 | 6.53668 | 103.46238 | 38884 ft | 473 kts | 17° |
| 2026-05-08 09:15 | 6.59934 | 103.48156 | 38886 ft | 474 kts | 17° |
| 2026-05-08 09:16 | 6.66248 | 103.50089 | 38885 ft | 474 kts | 17° |
| 2026-05-08 09:16 | 6.72571 | 103.52025 | 38889 ft | 475 kts | 17° |
| 2026-05-08 09:17 | 6.78905 | 103.53965 | 38889 ft | 475 kts | 17° |
| 2026-05-08 09:17 | 6.85254 | 103.55911 | 38888 ft | 476 kts | 17° |
| 2026-05-08 09:18 | 6.91431 | 103.58158 | 38879 ft | 475 kts | 31° |
| 2026-05-08 09:18 | 6.94088 | 103.60116 | 38893 ft | 474 kts | 43° |
| 2026-05-08 09:18 | 6.96302 | 103.62564 | 38882 ft | 474 kts | 55° |
| 2026-05-08 09:19 | 6.99701 | 103.68244 | 38884 ft | 474 kts | 59° |
| 2026-05-08 09:19 | 7.03046 | 103.73995 | 38881 ft | 476 kts | 59° |
| 2026-05-08 09:20 | 7.06432 | 103.79690 | 38887 ft | 478 kts | 58° |
| 2026-05-08 09:20 | 7.09878 | 103.85427 | 38883 ft | 480 kts | 58° |
| 2026-05-08 09:21 | 7.13331 | 103.91171 | 38880 ft | 476 kts | 59° |
| 2026-05-08 09:23 | 7.25481 | 104.10684 | 38894 ft | 471 kts | 49° |
| 2026-05-08 09:23 | 7.30285 | 104.15176 | 38885 ft | 473 kts | 36° |
| 2026-05-08 09:24 | 7.35685 | 104.18980 | 38892 ft | 475 kts | 35° |
| 2026-05-08 09:24 | 7.41117 | 104.22738 | 38893 ft | 476 kts | 35° |
| 2026-05-08 09:25 | 7.46555 | 104.26547 | 38885 ft | 476 kts | 35° |
| 2026-05-08 09:25 | 7.51973 | 104.30377 | 38887 ft | 475 kts | 35° |
| 2026-05-08 09:26 | 7.57371 | 104.34203 | 38886 ft | 473 kts | 35° |
| 2026-05-08 09:26 | 7.62761 | 104.38023 | 38889 ft | 472 kts | 35° |
| 2026-05-08 09:27 | 7.68103 | 104.41809 | 38896 ft | 472 kts | 35° |
| 2026-05-08 09:27 | 7.73477 | 104.45619 | 38891 ft | 472 kts | 35° |
| 2026-05-08 09:28 | 7.78848 | 104.49427 | 38892 ft | 472 kts | 35° |
| 2026-05-08 09:28 | 7.84226 | 104.53241 | 38893 ft | 472 kts | 35° |
| 2026-05-08 09:29 | 7.89607 | 104.57059 | 38891 ft | 473 kts | 35° |
| 2026-05-08 09:29 | 7.94966 | 104.60862 | 38882 ft | 473 kts | 35° |
| 2026-05-08 09:30 | 8.00353 | 104.64687 | 38891 ft | 473 kts | 35° |
| 2026-05-08 09:30 | 8.05747 | 104.68517 | 38885 ft | 473 kts | 36° |
| 2026-05-08 09:31 | 8.11135 | 104.72345 | 38894 ft | 472 kts | 35° |
| 2026-05-08 09:31 | 8.16497 | 104.76157 | 38899 ft | 471 kts | 35° |
| 2026-05-08 09:32 | 8.21853 | 104.79964 | 38892 ft | 469 kts | 35° |
| 2026-05-08 09:32 | 8.27146 | 104.83728 | 38891 ft | 468 kts | 35° |
| 2026-05-08 09:33 | 8.32464 | 104.87512 | 38892 ft | 467 kts | 35° |
| 2026-05-08 09:33 | 8.37780 | 104.91295 | 38892 ft | 466 kts | 35° |
| 2026-05-08 09:34 | 8.43059 | 104.95054 | 38890 ft | 467 kts | 34° |
| 2026-05-08 09:34 | 8.48380 | 104.98844 | 38897 ft | 468 kts | 34° |
| 2026-05-08 09:35 | 8.53688 | 105.02604 | 38892 ft | 469 kts | 34° |
| 2026-05-08 09:35 | 8.59061 | 105.06372 | 38892 ft | 470 kts | 34° |
| 2026-05-08 09:36 | 8.64447 | 105.10149 | 38897 ft | 471 kts | 34° |
| 2026-05-08 09:36 | 8.69840 | 105.13938 | 38897 ft | 472 kts | 34° |
| 2026-05-08 09:37 | 8.74330 | 105.17097 | 38607 ft | 477 kts | 34° |
| 2026-05-08 09:37 | 8.77080 | 105.19031 | 37870 ft | 481 kts | 34° |
| 2026-05-08 09:37 | 8.79807 | 105.20950 | 37378 ft | 474 kts | 34° |
| 2026-05-08 09:37 | 8.82500 | 105.22846 | 36873 ft | 469 kts | 34° |
| 2026-05-08 09:38 | 8.85164 | 105.24723 | 36385 ft | 464 kts | 34° |
| 2026-05-08 09:38 | 8.87803 | 105.26581 | 35906 ft | 460 kts | 34° |
| 2026-05-08 09:38 | 8.90419 | 105.28423 | 35414 ft | 457 kts | 35° |
| 2026-05-08 09:38 | 8.93028 | 105.30259 | 34921 ft | 455 kts | 35° |
| 2026-05-08 09:39 | 8.95620 | 105.32086 | 34413 ft | 453 kts | 35° |
| 2026-05-08 09:39 | 8.98205 | 105.33907 | 33886 ft | 452 kts | 35° |
| 2026-05-08 09:39 | 9.00779 | 105.35721 | 33331 ft | 450 kts | 35° |
| 2026-05-08 09:39 | 9.03344 | 105.37529 | 32814 ft | 447 kts | 36° |
| 2026-05-08 09:40 | 9.05856 | 105.39300 | 32318 ft | 444 kts | 36° |
| 2026-05-08 09:40 | 9.08385 | 105.41084 | 31810 ft | 442 kts | 36° |
| 2026-05-08 09:40 | 9.10903 | 105.42860 | 31329 ft | 439 kts | 36° |
| 2026-05-08 09:40 | 9.13410 | 105.44628 | 30833 ft | 437 kts | 36° |
| 2026-05-08 09:41 | 9.15898 | 105.46384 | 30344 ft | 436 kts | 37° |
| 2026-05-08 09:41 | 9.18381 | 105.48136 | 29831 ft | 434 kts | 36° |
| 2026-05-08 09:41 | 9.20859 | 105.49884 | 29273 ft | 432 kts | 36° |
| 2026-05-08 09:41 | 9.23313 | 105.51616 | 28759 ft | 429 kts | 36° |
| 2026-05-08 09:42 | 9.25755 | 105.53340 | 28266 ft | 426 kts | 37° |
| 2026-05-08 09:42 | 9.28181 | 105.55053 | 27780 ft | 423 kts | 36° |
| 2026-05-08 09:42 | 9.30590 | 105.56754 | 27301 ft | 420 kts | 36° |
| 2026-05-08 09:42 | 9.32956 | 105.58426 | 26843 ft | 417 kts | 37° |
| 2026-05-08 09:43 | 9.35330 | 105.60103 | 26362 ft | 415 kts | 36° |
| 2026-05-08 09:43 | 9.37688 | 105.61769 | 25905 ft | 412 kts | 36° |
| 2026-05-08 09:43 | 9.40036 | 105.63429 | 25439 ft | 410 kts | 36° |
| 2026-05-08 09:43 | 9.42372 | 105.65080 | 24976 ft | 408 kts | 37° |
| 2026-05-08 09:44 | 9.44696 | 105.66723 | 24524 ft | 406 kts | 37° |
| 2026-05-08 09:44 | 9.47018 | 105.68365 | 24062 ft | 404 kts | 37° |
| 2026-05-08 09:44 | 9.49297 | 105.69976 | 23608 ft | 403 kts | 37° |
| 2026-05-08 09:44 | 9.51590 | 105.71599 | 23105 ft | 401 kts | 37° |
| 2026-05-08 09:45 | 9.53874 | 105.73215 | 22631 ft | 398 kts | 37° |
| 2026-05-08 09:45 | 9.56139 | 105.74817 | 22151 ft | 395 kts | 37° |
| 2026-05-08 09:45 | 9.58383 | 105.76405 | 21710 ft | 392 kts | 37° |
| 2026-05-08 09:45 | 9.60610 | 105.77981 | 21277 ft | 389 kts | 37° |
| 2026-05-08 09:46 | 9.62821 | 105.79546 | 20832 ft | 386 kts | 37° |
| 2026-05-08 09:46 | 9.65023 | 105.81105 | 20387 ft | 384 kts | 37° |
| 2026-05-08 09:46 | 9.67207 | 105.82653 | 19964 ft | 382 kts | 37° |
| 2026-05-08 09:46 | 9.69356 | 105.84175 | 19522 ft | 380 kts | 37° |
| 2026-05-08 09:47 | 9.71524 | 105.85712 | 19082 ft | 379 kts | 37° |
| 2026-05-08 09:47 | 9.73686 | 105.87244 | 18639 ft | 378 kts | 37° |
| 2026-05-08 09:47 | 9.75841 | 105.88771 | 18202 ft | 377 kts | 37° |
| 2026-05-08 09:47 | 9.77987 | 105.90292 | 17704 ft | 376 kts | 37° |
| 2026-05-08 09:48 | 9.80126 | 105.91808 | 17240 ft | 374 kts | 37° |
| 2026-05-08 09:48 | 9.82251 | 105.93313 | 16795 ft | 371 kts | 37° |
| 2026-05-08 09:48 | 9.84363 | 105.94809 | 16370 ft | 369 kts | 37° |
| 2026-05-08 09:48 | 9.86461 | 105.96295 | 15934 ft | 367 kts | 37° |
| 2026-05-08 09:49 | 9.88531 | 105.97762 | 15512 ft | 365 kts | 37° |
| 2026-05-08 09:49 | 9.90608 | 105.99235 | 15088 ft | 363 kts | 37° |
| 2026-05-08 09:49 | 9.92679 | 106.00704 | 14672 ft | 362 kts | 37° |
| 2026-05-08 09:49 | 9.94742 | 106.02167 | 14227 ft | 361 kts | 37° |
| 2026-05-08 09:50 | 9.96798 | 106.03626 | 13807 ft | 360 kts | 37° |
| 2026-05-08 09:50 | 9.98848 | 106.05081 | 13350 ft | 359 kts | 37° |
| 2026-05-08 09:50 | 10.00889 | 106.06529 | 12912 ft | 356 kts | 37° |
| 2026-05-08 09:50 | 10.02888 | 106.07948 | 12491 ft | 354 kts | 36° |
| 2026-05-08 09:51 | 10.04910 | 106.09383 | 12072 ft | 352 kts | 37° |
| 2026-05-08 09:51 | 10.06918 | 106.10810 | 11659 ft | 350 kts | 36° |
| 2026-05-08 09:51 | 10.08913 | 106.12226 | 11251 ft | 348 kts | 37° |
| 2026-05-08 09:51 | 10.10867 | 106.13614 | 10842 ft | 346 kts | 36° |
| 2026-05-08 09:52 | 10.12844 | 106.15019 | 10439 ft | 345 kts | 37° |
| 2026-05-08 09:52 | 10.14801 | 106.16409 | 10177 ft | 339 kts | 37° |
| 2026-05-08 09:52 | 10.16709 | 106.17765 | 10024 ft | 330 kts | 36° |
| 2026-05-08 09:52 | 10.18568 | 106.19086 | 9815 ft | 324 kts | 36° |
| 2026-05-08 09:53 | 10.20397 | 106.20386 | 9621 ft | 317 kts | 36° |
| 2026-05-08 09:53 | 10.22150 | 106.21632 | 9504 ft | 303 kts | 36° |
| 2026-05-08 09:53 | 10.23839 | 106.22832 | 9415 ft | 289 kts | 36° |
| 2026-05-08 09:53 | 10.25460 | 106.23984 | 9239 ft | 279 kts | 36° |
| 2026-05-08 09:54 | 10.27041 | 106.25079 | 8994 ft | 271 kts | 33° |
| 2026-05-08 09:54 | 10.28683 | 106.26014 | 8647 ft | 269 kts | 30° |
| 2026-05-08 09:54 | 10.30347 | 106.26895 | 8265 ft | 268 kts | 29° |
| 2026-05-08 09:54 | 10.31973 | 106.27754 | 7914 ft | 266 kts | 29° |
| 2026-05-08 09:55 | 10.33608 | 106.28625 | 7568 ft | 264 kts | 30° |
| 2026-05-08 09:55 | 10.35224 | 106.29493 | 7213 ft | 262 kts | 30° |
| 2026-05-08 09:55 | 10.36825 | 106.30358 | 6875 ft | 260 kts | 30° |
| 2026-05-08 09:55 | 10.38420 | 106.31223 | 6509 ft | 258 kts | 30° |
| 2026-05-08 09:56 | 10.40003 | 106.32083 | 6168 ft | 257 kts | 30° |
| 2026-05-08 09:56 | 10.41576 | 106.32937 | 5796 ft | 255 kts | 30° |
| 2026-05-08 09:56 | 10.43133 | 106.33794 | 5388 ft | 251 kts | 33° |
| 2026-05-08 09:56 | 10.44338 | 106.35006 | 5072 ft | 243 kts | 62° |
| 2026-05-08 09:57 | 10.44867 | 106.38382 | 5016 ft | 252 kts | 94° |
| 2026-05-08 09:57 | 10.44660 | 106.40137 | 5007 ft | 254 kts | 96° |
| 2026-05-08 09:57 | 10.44433 | 106.41914 | 5000 ft | 253 kts | 96° |
| 2026-05-08 09:58 | 10.44218 | 106.43687 | 5003 ft | 252 kts | 95° |
| 2026-05-08 09:58 | 10.44016 | 106.45453 | 4998 ft | 252 kts | 95° |
| 2026-05-08 09:58 | 10.43818 | 106.47219 | 5003 ft | 250 kts | 95° |
| 2026-05-08 09:58 | 10.43627 | 106.48972 | 5008 ft | 247 kts | 93° |
| 2026-05-08 09:59 | 10.43846 | 106.50669 | 5005 ft | 246 kts | 67° |
| 2026-05-08 09:59 | 10.44663 | 106.52211 | 5011 ft | 251 kts | 60° |
| 2026-05-08 09:59 | 10.45506 | 106.53751 | 5012 ft | 253 kts | 61° |
| 2026-05-08 09:59 | 10.46351 | 106.55313 | 5003 ft | 251 kts | 62° |
| 2026-05-08 10:00 | 10.47191 | 106.56865 | 5007 ft | 249 kts | 61° |
| 2026-05-08 10:00 | 10.48029 | 106.58411 | 5001 ft | 249 kts | 61° |
| 2026-05-08 10:00 | 10.48961 | 106.59863 | 4989 ft | 244 kts | 45° |
| 2026-05-08 10:00 | 10.50448 | 106.60751 | 5010 ft | 256 kts | 17° |
| 2026-05-08 10:01 | 10.52230 | 106.60859 | 4935 ft | 267 kts | 351° |
| 2026-05-08 10:01 | 10.53942 | 106.60113 | 4762 ft | 269 kts | 323° |
| 2026-05-08 10:01 | 10.55256 | 106.58795 | 4638 ft | 264 kts | 315° |
| 2026-05-08 10:01 | 10.56532 | 106.57425 | 4473 ft | 268 kts | 316° |
| 2026-05-08 10:02 | 10.57807 | 106.56062 | 4329 ft | 270 kts | 315° |
| 2026-05-08 10:02 | 10.59105 | 106.54677 | 4168 ft | 271 kts | 315° |
| 2026-05-08 10:02 | 10.60415 | 106.53284 | 4021 ft | 273 kts | 316° |
| 2026-05-08 10:02 | 10.61729 | 106.51895 | 3844 ft | 271 kts | 316° |
| 2026-05-08 10:03 | 10.63023 | 106.50528 | 3689 ft | 266 kts | 316° |
| 2026-05-08 10:03 | 10.64307 | 106.49172 | 3560 ft | 264 kts | 316° |
| 2026-05-08 10:03 | 10.65584 | 106.47824 | 3410 ft | 264 kts | 316° |
| 2026-05-08 10:03 | 10.66876 | 106.46557 | 3243 ft | 256 kts | 328° |
| 2026-05-08 10:04 | 10.68500 | 106.45949 | 3115 ft | 248 kts | 1° |
| 2026-05-08 10:04 | 10.70183 | 106.46194 | 2988 ft | 242 kts | 22° |
| 2026-05-08 10:04 | 10.71714 | 106.46885 | 2883 ft | 237 kts | 30° |
| 2026-05-08 10:04 | 10.73149 | 106.47632 | 2721 ft | 226 kts | 30° |
| 2026-05-08 10:05 | 10.74496 | 106.48341 | 2583 ft | 213 kts | 34° |
| 2026-05-08 10:05 | 10.75458 | 106.49328 | 2475 ft | 185 kts | 64° |
| 2026-05-08 10:05 | 10.76019 | 106.50449 | 2375 ft | 172 kts | 66° |
| 2026-05-08 10:05 | 10.76535 | 106.51537 | 2274 ft | 172 kts | 69° |
| 2026-05-08 10:06 | 10.76993 | 106.52671 | 2180 ft | 173 kts | 71° |
| 2026-05-08 10:06 | 10.77424 | 106.53797 | 2085 ft | 170 kts | 71° |
| 2026-05-08 10:06 | 10.77851 | 106.54934 | 1889 ft | 174 kts | 71° |
| 2026-05-08 10:06 | 10.78277 | 106.56079 | 1658 ft | 174 kts | 70° |
| 2026-05-08 10:07 | 10.78696 | 106.57191 | 1465 ft | 161 kts | 70° |
| 2026-05-08 10:07 | 10.79082 | 106.58212 | 1261 ft | 149 kts | 70° |
| 2026-05-08 10:07 | 10.79434 | 106.59151 | 1094 ft | 141 kts | 70° |
| 2026-05-08 10:07 | 10.79793 | 106.60107 | 887 ft | 146 kts | 70° |
| 2026-05-08 10:08 | 10.80148 | 106.61050 | 728 ft | 142 kts | 70° |
| 2026-05-08 10:08 | 10.80495 | 106.61978 | 577 ft | 141 kts | 71° |
| 2026-05-08 10:08 | 10.80845 | 106.62906 | 364 ft | 140 kts | 69° |
| 2026-05-08 10:08 | 10.81207 | 106.63849 | 210 ft | 144 kts | 69° |
| 2026-05-08 10:09 | 10.81554 | 106.64791 | 60 ft | 141 kts | 70° |
| 2026-05-08 10:09 | 10.81878 | 106.65656 | 46 ft | 114 kts | 68° |
| 2026-05-08 10:09 | 10.82022 | 106.66037 | 48 ft | 14 kts | 82° |
| 2026-05-08 10:09 | 10.81935 | 106.66079 | 47 ft | 19 kts | 186° |
| 2026-05-08 10:10 | 10.81803 | 106.66065 | 46 ft | 19 kts | 186° |
| 2026-05-08 10:10 | 10.81669 | 106.66052 | 45 ft | 19 kts | 185° |
| 2026-05-08 10:10 | 10.81536 | 106.66038 | 45 ft | 19 kts | 186° |
| 2026-05-08 10:10 | 10.81403 | 106.66026 | 45 ft | 19 kts | 185° |
| 2026-05-08 10:11 | 10.81269 | 106.66017 | 44 ft | 19 kts | 184° |
| 2026-05-08 10:11 | 10.81138 | 106.66006 | 44 ft | 19 kts | 185° |
| 2026-05-08 10:11 | 10.81005 | 106.65994 | 44 ft | 19 kts | 185° |
| 2026-05-08 10:11 | 10.80904 | 106.65969 | 44 ft | 0 kts | 183° |